Time;durP1;ratioP1;P1;durP2;ratioP2;P2;SDS_P1;SDS_P2;PMS_P1;PMS_P2;Temp;Humidity;BMP_temperature;BMP_pressure;BME280_temperature;BME280_humidity;BME280_pressure;Samples;Min_cycle;Max_cycle;Signal;HPM_P1;HPM_P2
2023/01/28 00:00:58;;;;;;;21.90;11.30;;;;;;;0.22;100.00;96429.09;5084243;28;20212;-82
2023/01/28 00:03:26;;;;;;;22.30;12.00;;;;;;;0.19;100.00;96424.09;5087080;28;20205;-82
2023/01/28 00:06:01;;;;;;;20.10;11.80;;;;;;;0.18;100.00;96417.94;5087435;28;20201;-83
2023/01/28 00:08:30;;;;;;;22.13;12.13;;;;;;;0.15;100.00;96425.44;5085439;28;20234;-83
2023/01/28 00:10:59;;;;;;;19.87;11.50;;;;;;;0.12;100.00;96431.06;5088893;28;20269;-82
2023/01/28 00:13:26;;;;;;;19.37;11.63;;;;;;;0.11;100.00;96421.44;5091196;28;20201;-83
2023/01/28 00:15:56;;;;;;;19.70;11.03;;;;;;;0.20;100.00;96425.75;5078866;28;20231;-83
2023/01/28 00:18:24;;;;;;;22.83;11.80;;;;;;;0.26;100.00;96430.41;5082546;28;20206;-83
2023/01/28 00:21:00;;;;;;;21.30;11.57;;;;;;;0.33;100.00;96426.13;5076703;28;20232;-83
2023/01/28 00:23:31;;;;;;;21.07;11.37;;;;;;;0.32;100.00;96424.44;5086615;28;20206;-83
2023/01/28 00:25:59;;;;;;;21.40;11.00;;;;;;;0.34;100.00;96420.63;5088845;28;20204;-83
2023/01/28 00:28:26;;;;;;;19.83;11.30;;;;;;;0.30;100.00;96408.69;5090675;28;20204;-82
2023/01/28 00:30:54;;;;;;;19.17;11.07;;;;;;;0.36;100.00;96415.13;5085044;28;20275;-83
2023/01/28 00:33:21;;;;;;;17.07;10.70;;;;;;;0.38;100.00;96421.13;5077982;28;20261;-83
2023/01/28 00:35:57;;;;;;;19.60;10.90;;;;;;;0.43;100.00;96424.09;5084168;28;20248;-83
2023/01/28 00:38:24;;;;;;;21.30;11.50;;;;;;;0.32;100.00;96419.13;5073973;28;20211;-83
2023/01/28 00:40:52;;;;;;;18.07;10.93;;;;;;;0.30;100.00;96416.63;5071516;28;20206;-82
2023/01/28 00:43:19;;;;;;;20.37;11.47;;;;;;;0.31;100.00;96417.47;5073198;28;20292;-83
2023/01/28 00:45:46;;;;;;;17.83;10.80;;;;;;;0.31;100.00;96428.09;5081179;28;20197;-83
2023/01/28 00:48:14;;;;;;;18.47;10.30;;;;;;;0.28;100.00;96423.09;5082729;28;20237;-83
2023/01/28 00:50:41;;;;;;;17.47;10.57;;;;;;;0.26;100.00;96422.44;5086844;28;20197;-83
2023/01/28 00:53:08;;;;;;;18.13;10.60;;;;;;;0.23;100.00;96425.44;5086485;28;20256;-83
2023/01/28 00:55:35;;;;;;;19.37;10.73;;;;;;;0.13;100.00;96414.13;5083185;28;20193;-83
2023/01/28 00:58:03;;;;;;;17.47;10.07;;;;;;;0.21;100.00;96435.38;5086113;28;20208;-83
2023/01/28 01:00:30;;;;;;;16.67;10.53;;;;;;;0.11;100.00;96416.94;5088483;28;20217;-83
2023/01/28 01:02:57;;;;;;;18.67;10.47;;;;;;;0.12;100.00;96418.59;5078014;28;20206;-82
2023/01/28 01:05:25;;;;;;;18.77;11.00;;;;;;;0.21;100.00;96427.41;5077619;28;20213;-82
2023/01/28 01:07:52;;;;;;;18.70;10.27;;;;;;;0.20;100.00;96436.38;5088495;28;20253;-83
2023/01/28 01:10:20;;;;;;;18.73;10.80;;;;;;;0.11;100.00;96426.72;5073207;28;20213;-82
2023/01/28 01:12:48;;;;;;;19.40;10.60;;;;;;;0.02;100.00;96417.94;5084722;28;20197;-83
2023/01/28 01:15:17;;;;;;;21.00;11.33;;;;;;;0.06;100.00;96423.75;5087595;28;20217;-83
2023/01/28 01:17:47;;;;;;;22.47;10.97;;;;;;;0.08;100.00;96427.91;5084275;28;20212;-82
2023/01/28 01:20:15;;;;;;;17.87;10.00;;;;;;;0.12;100.00;96439.84;5087234;28;20233;-83
2023/01/28 01:22:42;;;;;;;18.90;10.77;;;;;;;0.16;100.00;96437.72;5084396;28;20206;-82
2023/01/28 01:25:14;;;;;;;16.77;9.97;;;;;;;0.14;100.00;96421.09;5085289;28;20208;-83
2023/01/28 01:27:41;;;;;;;18.20;10.17;;;;;;;0.21;100.00;96438.03;5088294;28;20209;-82
2023/01/28 01:30:10;;;;;;;17.13;10.17;;;;;;;0.18;100.00;96427.72;5085511;28;20193;-83
2023/01/28 01:32:38;;;;;;;14.90;8.97;;;;;;;0.23;100.00;96431.56;5089079;28;20208;-82
2023/01/28 01:35:07;;;;;;;15.60;10.27;;;;;;;0.23;100.00;96428.09;5072876;28;20212;-83
2023/01/28 01:37:34;;;;;;;18.10;10.13;;;;;;;0.30;100.00;96439.72;5088365;28;20291;-83
2023/01/28 01:40:03;;;;;;;16.80;9.83;;;;;;;0.31;100.00;96436.06;5085089;28;20219;-83
2023/01/28 01:42:31;;;;;;;18.03;10.07;;;;;;;0.30;100.00;96442.38;5077196;28;20212;-83
2023/01/28 01:45:01;;;;;;;15.63;9.40;;;;;;;0.35;100.00;96445.34;5091336;28;20194;-83
2023/01/28 01:47:38;;;;;;;20.57;11.73;;;;;;;0.19;100.00;96429.41;5083474;28;20221;-83
2023/01/28 01:50:13;;;;;;;17.03;10.57;;;;;;;0.30;100.00;96458.31;5084399;28;20197;-83
2023/01/28 01:52:42;;;;;;;19.50;11.23;;;;;;;0.24;100.00;96441.22;5105508;28;20203;-83
2023/01/28 01:55:14;;;;;;;17.93;10.43;;;;;;;0.26;100.00;96451.66;5077891;28;20222;-83
2023/01/28 01:57:43;;;;;;;18.77;9.77;;;;;;;0.30;100.00;96450.34;5077309;28;20201;-83
2023/01/28 02:00:11;;;;;;;16.83;9.60;;;;;;;0.33;100.00;96444.72;5086164;28;20218;-83
2023/01/28 02:02:45;;;;;;;15.63;9.80;;;;;;;0.35;100.00;96448.00;5085067;28;20275;-83
2023/01/28 02:05:16;;;;;;;16.03;9.20;;;;;;;0.37;100.00;96454.00;5071511;28;20276;-83
2023/01/28 02:07:46;;;;;;;16.07;9.70;;;;;;;0.27;100.00;96437.38;5088743;28;20284;-83
2023/01/28 02:10:14;;;;;;;16.10;9.40;;;;;;;0.39;100.00;96446.69;5085293;28;20204;-83
2023/01/28 02:12:45;;;;;;;17.93;9.93;;;;;;;0.35;100.00;96445.34;5087964;28;20211;-83
2023/01/28 02:15:16;;;;;;;15.23;9.67;;;;;;;0.39;100.00;96441.38;5089215;28;20236;-83
2023/01/28 02:17:44;;;;;;;16.80;9.50;;;;;;;0.36;100.00;96433.72;5089856;28;20208;-83
2023/01/28 02:20:19;;;;;;;16.87;9.47;;;;;;;0.35;100.00;96429.41;5090707;28;20303;-83
2023/01/28 02:23:01;;;;;;;15.73;9.73;;;;;;;0.28;100.00;96426.59;5085582;28;20200;-82
2023/01/28 02:25:52;;;;;;;17.23;10.97;;;;;;;0.33;100.00;96445.53;5092569;28;20204;-83
2023/01/28 02:28:31;;;;;;;18.70;9.83;;;;;;;0.24;100.00;96445.69;5086329;28;20208;-83
2023/01/28 02:31:09;;;;;;;17.00;9.93;;;;;;;0.09;100.00;96436.69;5083668;28;20298;-82
2023/01/28 02:33:42;;;;;;;17.47;10.17;;;;;;;0.16;100.00;96446.50;5082687;28;20216;-83
2023/01/28 02:36:18;;;;;;;17.97;10.80;;;;;;;0.10;100.00;96441.84;5088628;28;20204;-83
2023/01/28 02:38:49;;;;;;;20.47;11.37;;;;;;;0.07;100.00;96444.84;5081598;28;20264;-83
2023/01/28 02:41:23;;;;;;;20.70;11.77;;;;;;;0.05;100.00;96445.97;5091104;28;20229;-83
2023/01/28 02:43:51;;;;;;;20.63;10.40;;;;;;;0.00;100.00;96436.66;5089137;28;20203;-82
2023/01/28 02:49:10;;;;;;;16.43;10.20;;;;;;;0.01;100.00;96437.50;5086315;28;20211;-83
2023/01/28 02:51:51;;;;;;;18.97;10.10;;;;;;;0.02;100.00;96433.84;5086658;28;20205;-83
2023/01/28 02:54:28;;;;;;;19.33;11.53;;;;;;;-0.04;100.00;96434.50;5078888;28;20204;-82
2023/01/28 02:57:07;;;;;;;22.30;11.33;;;;;;;-0.03;100.00;96444.13;5077161;28;20217;-82
2023/01/28 02:59:42;;;;;;;21.63;11.37;;;;;;;-0.08;100.00;96434.00;5100852;28;20255;-83
2023/01/28 03:02:19;;;;;;;20.57;11.30;;;;;;;-0.06;100.00;96429.34;5083608;28;20199;-82
2023/01/28 03:04:50;;;;;;;19.40;11.37;;;;;;;-0.06;100.00;96432.00;5086922;28;20291;-83
2023/01/28 03:07:20;;;;;;;18.20;11.00;;;;;;;-0.09;100.00;96424.41;5085795;28;20216;-83
2023/01/28 03:09:49;;;;;;;17.87;10.87;;;;;;;0.02;100.00;96439.16;5086700;28;20193;-83
2023/01/28 03:37:35;;;;;;;16.70;10.20;;;;;;;-0.16;100.00;96463.16;5087977;28;20201;-82
2023/01/28 03:40:09;;;;;;;17.20;10.17;;;;;;;-0.20;100.00;96467.16;5081252;28;20302;-82
2023/01/28 03:42:36;;;;;;;17.97;10.00;;;;;;;-0.20;100.00;96461.00;5086103;28;20195;-83
2023/01/28 03:45:29;;;;;;;16.33;9.53;;;;;;;-0.20;100.00;96461.84;5075715;28;20204;-82
2023/01/28 03:47:57;;;;;;;24.77;11.30;;;;;;;-0.17;100.00;96466.81;5081230;28;20207;-82
2023/01/28 03:50:25;;;;;;;12.43;6.97;;;;;;;-0.16;100.00;96452.56;5087979;28;20202;-82
2023/01/28 03:53:11;;;;;;;12.03;7.07;;;;;;;-0.13;100.00;96468.16;5085391;28;20661;-81
2023/01/28 03:55:50;;;;;;;10.83;6.27;;;;;;;-0.10;100.00;96467.03;5085124;28;20208;-83
2023/01/28 03:58:18;;;;;;;10.37;6.10;;;;;;;-0.10;100.00;96464.38;5080381;28;20209;-82
2023/01/28 04:00:45;;;;;;;10.67;6.13;;;;;;;-0.21;100.00;96454.03;5080820;28;20229;-82
2023/01/28 04:03:17;;;;;;;10.33;6.33;;;;;;;-0.08;100.00;96470.31;5089467;28;20934;-82
2023/01/28 04:05:59;;;;;;;9.43;6.20;;;;;;;-0.06;100.00;96474.47;5075814;28;20208;-82
2023/01/28 04:08:34;;;;;;;9.33;6.10;;;;;;;-0.11;100.00;96460.03;5087419;28;20298;-82
2023/01/28 04:11:30;;;;;;;11.83;6.47;;;;;;;-0.02;100.00;96475.84;5071963;28;20240;-83
2023/01/28 04:14:00;;;;;;;12.10;7.50;;;;;;;0.00;100.00;96476.47;5089137;28;20207;-83
2023/01/28 04:16:35;;;;;;;11.43;6.67;;;;;;;0.00;100.00;96465.88;5071448;28;20246;-82
2023/01/28 04:19:04;;;;;;;11.40;6.90;;;;;;;-0.04;100.00;96459.22;5075946;28;20197;-83
2023/01/28 04:21:32;;;;;;;10.43;6.13;;;;;;;0.01;100.00;96464.03;5084553;28;20233;-83
2023/01/28 04:24:01;;;;;;;13.47;8.50;;;;;;;0.06;100.00;96466.22;5079490;28;20289;-82
2023/01/28 04:26:28;;;;;;;10.43;6.73;;;;;;;0.02;100.00;96455.09;5076898;28;20200;-82
2023/01/28 04:28:55;;;;;;;11.83;6.60;;;;;;;0.01;100.00;96453.41;5085868;28;20199;-82
2023/01/28 04:31:23;;;;;;;14.30;7.17;;;;;;;0.00;100.00;96452.59;5083991;28;20193;-83
2023/01/28 04:34:10;;;;;;;12.33;6.83;;;;;;;-0.03;100.00;96458.25;5078576;28;20223;-82
2023/01/28 04:36:51;;;;;;;12.63;6.47;;;;;;;-0.02;100.00;96448.47;5081802;28;20207;-82
2023/01/28 04:39:36;;;;;;;10.73;6.67;;;;;;;0.03;100.00;96445.31;5085036;28;20338;-82
2023/01/28 04:42:29;;;;;;;12.00;6.73;;;;;;;0.10;100.00;96457.75;5061151;28;20217;-82
2023/01/28 04:45:23;;;;;;;11.80;6.93;;;;;;;0.05;100.00;96461.91;5073856;28;20211;-83
2023/01/28 04:47:58;;;;;;;13.33;7.47;;;;;;;-0.05;100.00;96457.56;5086729;28;20193;-83
2023/01/28 04:50:45;;;;;;;12.13;7.43;;;;;;;-0.08;100.00;96463.19;5086104;28;20246;-83
2023/01/28 04:53:18;;;;;;;11.10;6.87;;;;;;;-0.09;100.00;96466.88;5082991;28;20213;-82
2023/01/28 04:56:11;;;;;;;13.23;8.13;;;;;;;-0.09;100.00;96466.88;5066607;28;20286;-83
2023/01/28 04:58:39;;;;;;;14.33;7.87;;;;;;;-0.08;100.00;96463.19;5099492;28;20212;-82
2023/01/28 05:01:12;;;;;;;17.10;8.40;;;;;;;-0.11;100.00;96468.84;5085051;28;20286;-82
2023/01/28 05:03:39;;;;;;;13.10;8.17;;;;;;;-0.13;100.00;96475.28;5086190;28;20205;-82
2023/01/28 05:06:09;;;;;;;13.60;8.33;;;;;;;-0.17;100.00;96469.47;5086475;28;20254;-82
2023/01/28 05:08:42;;;;;;;14.47;8.60;;;;;;;-0.18;100.00;96489.06;5078806;28;20196;-83
2023/01/28 05:11:09;;;;;;;54.83;30.67;;;;;;;-0.21;100.00;96492.03;5087986;28;20246;-83
2023/01/28 05:13:36;;;;;;;14.73;8.03;;;;;;;-0.30;100.00;96487.66;5083363;28;20208;-82
2023/01/28 05:16:04;;;;;;;14.37;7.73;;;;;;;-0.28;100.00;96488.34;5087172;28;20224;-83
2023/01/28 05:18:32;;;;;;;12.90;7.60;;;;;;;-0.28;100.00;96483.03;5084662;28;20224;-82
2023/01/28 05:21:09;;;;;;;10.60;6.67;;;;;;;-0.27;100.00;96491.84;5084745;28;20254;-82
2023/01/28 05:23:39;;;;;;;14.23;8.03;;;;;;;-0.27;100.00;96487.38;5086797;28;20217;-83
2023/01/28 05:26:06;;;;;;;14.70;7.60;;;;;;;-0.20;100.00;96498.16;5074723;28;20206;-82
2023/01/28 05:28:34;;;;;;;14.67;8.60;;;;;;;-0.19;100.00;96494.53;5083111;28;20207;-82
2023/01/28 05:31:04;;;;;;;15.33;8.93;;;;;;;-0.24;100.00;96497.63;5079998;28;20212;-82
2023/01/28 05:33:31;;;;;;;17.13;9.03;;;;;;;-0.28;100.00;96498.97;5087615;28;20254;-83
2023/01/28 05:35:58;;;;;;;15.20;8.63;;;;;;;-0.32;100.00;96507.38;5097972;28;20196;-82
2023/01/28 05:38:26;;;;;;;16.87;9.23;;;;;;;-0.34;100.00;96504.09;5083940;28;20196;-83
2023/01/28 05:40:53;;;;;;;18.60;10.87;;;;;;;-0.30;100.00;96502.75;5083845;28;20220;-82
2023/01/28 05:43:21;;;;;;;20.70;11.47;;;;;;;-0.32;100.00;96505.56;5093221;28;20470;-82
2023/01/28 05:46:07;;;;;;;25.17;12.50;;;;;;;-0.33;100.00;96501.25;5080511;28;20208;-81
2023/01/28 05:49:12;;;;;;;39.80;18.23;;;;;;;-0.36;100.00;96504.25;5063731;28;20211;-81
2023/01/28 05:51:55;;;;;;;16.83;9.73;;;;;;;-0.34;100.00;96506.72;5085292;28;20214;-81
2023/01/28 05:54:25;;;;;;;20.73;11.97;;;;;;;-0.35;100.00;96511.22;5075677;28;20204;-82
2023/01/28 05:56:53;;;;;;;18.40;10.27;;;;;;;-0.38;100.00;96509.69;5086640;28;20211;-81
2023/01/28 05:59:20;;;;;;;20.40;11.27;;;;;;;-0.45;100.00;96511.31;5085434;28;20197;-81
2023/01/28 06:01:50;;;;;;;20.90;11.27;;;;;;;-0.43;100.00;96516.47;5084948;28;20301;-82
2023/01/28 06:04:19;;;;;;;19.27;11.20;;;;;;;-0.42;100.00;96526.06;5086030;28;20234;-82
2023/01/28 06:06:46;;;;;;;16.77;9.80;;;;;;;-0.45;100.00;96531.72;5083817;28;20204;-82
2023/01/28 06:09:13;;;;;;;22.83;11.27;;;;;;;-0.44;100.00;96533.38;5086823;28;20244;-81
2023/01/28 06:11:41;;;;;;;20.23;10.83;;;;;;;-0.43;100.00;96535.03;5086202;28;20228;-81
2023/01/28 06:14:08;;;;;;;39.53;20.30;;;;;;;-0.44;100.00;96536.03;5084227;28;20225;-81
2023/01/28 06:17:06;;;;;;;24.37;14.63;;;;;;;-0.47;100.00;96547.78;5085215;28;20197;-82
2023/01/28 06:19:44;;;;;;;17.17;10.30;;;;;;;-0.47;100.00;96549.59;5087455;28;20228;-82
2023/01/28 06:22:11;;;;;;;19.17;10.43;;;;;;;-0.55;100.00;96552.19;5087330;28;20229;-82
2023/01/28 06:24:39;;;;;;;18.37;10.20;;;;;;;-0.57;100.00;96543.56;5085796;28;20201;-81
2023/01/28 06:27:07;;;;;;;16.53;9.93;;;;;;;-0.55;100.00;96557.50;5077148;28;20205;-81
2023/01/28 06:29:34;;;;;;;18.07;9.37;;;;;;;-0.62;100.00;96549.34;5091544;28;20194;-82
2023/01/28 06:32:01;;;;;;;15.37;8.90;;;;;;;-0.52;100.00;96567.81;5071861;28;20296;-82
2023/01/28 06:34:28;;;;;;;16.40;9.67;;;;;;;-0.49;100.00;96554.22;5080516;28;20212;-82
2023/01/28 06:36:55;;;;;;;17.77;9.70;;;;;;;-0.44;100.00;96565.22;5080618;28;20208;-81
2023/01/28 06:39:22;;;;;;;17.63;9.43;;;;;;;-0.47;100.00;96554.91;5081063;28;20201;-81
2023/01/28 06:41:49;;;;;;;18.17;10.33;;;;;;;-0.42;100.00;96557.91;5086301;28;20303;-81
2023/01/28 06:44:18;;;;;;;18.43;10.80;;;;;;;-0.43;100.00;96567.72;5080065;28;20213;-82
2023/01/28 06:46:45;;;;;;;16.73;9.90;;;;;;;-0.42;100.00;96569.34;5085361;28;20240;-82
2023/01/28 06:49:11;;;;;;;15.57;9.77;;;;;;;-0.37;100.00;96555.63;5082602;28;20201;-82
2023/01/28 06:51:39;;;;;;;23.97;13.30;;;;;;;-0.32;100.00;96561.28;5078569;28;20205;-84
2023/01/28 06:54:07;;;;;;;19.00;10.20;;;;;;;-0.32;100.00;96555.97;5076014;28;20205;-81
2023/01/28 06:56:34;;;;;;;33.90;16.47;;;;;;;-0.34;100.00;96560.59;5073862;28;20235;-81
2023/01/28 06:59:01;;;;;;;16.77;9.33;;;;;;;-0.36;100.00;96557.28;5087941;28;20198;-81
2023/01/28 07:01:30;;;;;;;31.57;17.63;;;;;;;-0.32;100.00;96553.31;5089576;28;20271;-82
2023/01/28 07:03:57;;;;;;;18.87;10.87;;;;;;;-0.34;100.00;96551.84;5088308;28;20192;-81
2023/01/28 07:06:24;;;;;;;17.23;10.13;;;;;;;-0.36;100.00;96564.41;5082969;28;20218;-81
2023/01/28 07:08:51;;;;;;;20.40;10.73;;;;;;;-0.40;100.00;96556.75;5080752;28;20280;-81
2023/01/28 07:11:18;;;;;;;19.87;10.80;;;;;;;-0.38;100.00;96559.28;5104536;28;20213;-81
2023/01/28 07:13:46;;;;;;;19.60;10.73;;;;;;;-0.39;100.00;96566.38;5086728;28;20193;-82
2023/01/28 07:16:15;;;;;;;18.73;10.63;;;;;;;-0.36;100.00;96567.06;5086883;28;20256;-81
2023/01/28 07:18:44;;;;;;;16.53;9.87;;;;;;;-0.33;100.00;96570.22;5084788;28;20201;-81
2023/01/28 07:21:11;;;;;;;17.73;10.27;;;;;;;-0.27;100.00;96569.63;5078277;28;20228;-82
2023/01/28 07:23:39;;;;;;;20.83;11.73;;;;;;;-0.23;100.00;96573.59;5079755;28;20197;-82
2023/01/28 07:26:06;;;;;;;18.00;10.30;;;;;;;-0.20;100.00;96578.59;5085888;28;20258;-82
2023/01/28 07:28:33;;;;;;;17.60;10.83;;;;;;;-0.16;100.00;96574.63;5090305;28;20232;-82
2023/01/28 07:31:02;;;;;;;21.97;11.50;;;;;;;-0.13;100.00;96576.97;5087903;28;20193;-82
2023/01/28 07:33:29;;;;;;;21.40;11.17;;;;;;;-0.13;100.00;96574.31;5085289;28;20212;-82
2023/01/28 07:35:58;;;;;;;19.43;10.80;;;;;;;-0.10;100.00;96581.97;5083923;28;20201;-82
2023/01/28 07:38:25;;;;;;;19.77;10.63;;;;;;;-0.10;100.00;96584.63;5087801;28;20205;-82
2023/01/28 07:40:52;;;;;;;15.67;10.03;;;;;;;-0.09;100.00;96586.31;5084111;28;20229;-81
2023/01/28 07:43:19;;;;;;;16.07;10.23;;;;;;;-0.09;100.00;96591.63;5078909;28;20240;-82
2023/01/28 07:45:46;;;;;;;19.37;10.77;;;;;;;-0.13;100.00;96587.59;5086047;28;20265;-82
2023/01/28 07:48:13;;;;;;;15.03;9.30;;;;;;;-0.02;100.00;96597.94;5096546;28;20216;-81
2023/01/28 07:50:40;;;;;;;16.53;9.47;;;;;;;-0.24;100.00;96587.03;5078093;28;20204;-82
2023/01/28 07:53:11;;;;;;;20.97;10.03;;;;;;;-0.22;100.00;96599.16;5088053;28;20213;-82
2023/01/28 07:55:39;;;;;;;21.73;10.47;;;;;;;-0.25;100.00;96594.16;5087546;28;20240;-83
2023/01/28 07:58:11;;;;;;;16.70;10.23;;;;;;;-0.14;100.00;96614.28;5077219;28;20200;-83
2023/01/28 08:00:39;;;;;;;14.73;9.43;;;;;;;-0.19;100.00;96605.97;5086424;28;20215;-83
2023/01/28 08:03:07;;;;;;;17.07;9.47;;;;;;;-0.13;100.00;96619.44;5089059;28;20293;-83
2023/01/28 08:05:40;;;;;;;16.13;9.67;;;;;;;-0.18;100.00;96619.09;5091186;28;20207;-81
2023/01/28 08:08:10;;;;;;;16.40;9.67;;;;;;;-0.15;100.00;96616.09;5082495;28;20231;-81
2023/01/28 08:10:38;;;;;;;16.57;10.93;;;;;;;-0.20;100.00;96615.75;5086740;28;20216;-81
2023/01/28 08:13:06;;;;;;;20.43;11.00;;;;;;;-0.23;100.00;96612.56;5086177;28;20193;-81
2023/01/28 08:15:34;;;;;;;17.83;9.57;;;;;;;-0.32;100.00;96601.06;5084235;28;20220;-81
2023/01/28 08:18:01;;;;;;;16.07;9.43;;;;;;;-0.19;100.00;96617.44;5079523;28;20205;-84
2023/01/28 08:20:30;;;;;;;17.03;10.47;;;;;;;-0.13;100.00;96621.25;5089398;28;20228;-83
2023/01/28 08:23:08;;;;;;;20.83;10.10;;;;;;;-0.20;100.00;96615.75;5077192;28;20224;-84
2023/01/28 08:25:36;;;;;;;17.80;9.97;;;;;;;-0.18;100.00;96619.09;5085206;28;20291;-80
2023/01/28 08:28:05;;;;;;;18.33;10.30;;;;;;;-0.10;100.00;96628.91;5083059;28;20454;-80
2023/01/28 08:30:32;;;;;;;17.83;10.80;;;;;;;-0.08;100.00;96634.88;5074732;28;20205;-81
2023/01/28 08:33:00;;;;;;;20.83;11.37;;;;;;;-0.10;100.00;96647.50;5086749;28;20226;-80
2023/01/28 08:35:28;;;;;;;19.00;10.53;;;;;;;-0.08;100.00;96640.19;5083647;28;20255;-84
2023/01/28 08:37:55;;;;;;;19.50;10.03;;;;;;;-0.14;100.00;96639.00;5080556;28;20197;-83
2023/01/28 08:40:22;;;;;;;20.77;11.10;;;;;;;-0.22;100.00;96638.97;5083167;28;20272;-83
2023/01/28 08:42:51;;;;;;;18.30;11.00;;;;;;;-0.17;100.00;96641.97;5086274;28;20228;-83
2023/01/28 08:45:21;;;;;;;17.13;10.47;;;;;;;-0.12;100.00;96645.00;5087553;28;20214;-83
2023/01/28 08:47:49;;;;;;;21.43;10.17;;;;;;;-0.12;100.00;96645.00;5090831;28;20234;-83
2023/01/28 08:50:17;;;;;;;20.43;10.43;;;;;;;-0.12;100.00;96646.81;5085099;28;20239;-83
2023/01/28 08:52:44;;;;;;;19.93;10.20;;;;;;;-0.08;100.00;96646.34;5079321;28;20332;-83
2023/01/28 08:55:11;;;;;;;21.67;10.53;;;;;;;-0.18;100.00;96629.72;5084732;28;20212;-83
2023/01/28 08:57:39;;;;;;;18.50;9.53;;;;;;;-0.13;100.00;96637.19;5081223;28;20228;-83
2023/01/28 09:00:10;;;;;;;17.83;9.97;;;;;;;-0.20;100.00;96634.34;5074285;28;20220;-83
2023/01/28 09:02:37;;;;;;;19.40;10.03;;;;;;;-0.14;100.00;96640.81;5071602;28;20209;-82
2023/01/28 09:05:09;;;;;;;15.07;8.97;;;;;;;-0.10;100.00;96651.00;5083446;28;20193;-83
2023/01/28 09:07:36;;;;;;;13.23;7.83;;;;;;;0.02;100.00;96648.03;5087462;28;20196;-81
2023/01/28 09:10:04;;;;;;;15.07;7.27;;;;;;;0.09;98.46;96647.25;5081493;28;20204;-81
2023/01/28 09:12:31;;;;;;;11.30;6.73;;;;;;;0.19;96.12;96647.97;5086039;28;20296;-81
2023/01/28 09:14:59;;;;;;;10.07;6.17;;;;;;;0.30;95.98;96645.03;5078872;28;20228;-81
2023/01/28 09:17:27;;;;;;;8.20;5.33;;;;;;;0.36;89.26;96648.88;5071649;28;20206;-81
2023/01/28 09:19:54;;;;;;;10.10;5.43;;;;;;;0.44;87.87;96648.91;5072345;28;20201;-81
2023/01/28 09:22:21;;;;;;;11.47;6.20;;;;;;;0.52;86.90;96650.75;5078158;28;20233;-80
2023/01/28 09:24:48;;;;;;;8.87;5.47;;;;;;;0.53;84.19;96655.09;5087256;28;20196;-81
2023/01/28 09:27:15;;;;;;;12.80;5.27;;;;;;;0.52;82.95;96654.25;5086607;28;20205;-81
2023/01/28 09:29:42;;;;;;;8.40;5.27;;;;;;;0.61;82.71;96658.59;5087402;28;20299;-81
2023/01/28 09:32:09;;;;;;;8.43;5.40;;;;;;;0.68;80.58;96664.94;5084648;28;20219;-80
2023/01/28 09:34:38;;;;;;;9.63;5.60;;;;;;;0.77;80.65;96657.00;5087161;28;20296;-81
2023/01/28 09:37:05;;;;;;;9.13;5.43;;;;;;;0.77;78.71;96646.38;5085640;28;20197;-80
2023/01/28 09:39:34;;;;;;;7.53;4.67;;;;;;;0.85;79.55;96646.41;5085940;28;20201;-81
2023/01/28 09:42:19;;;;;;;8.63;4.53;;;;;;;0.92;77.83;96655.38;5087566;28;20755;-81
2023/01/28 09:45:01;;;;;;;7.47;4.67;;;;;;;1.00;77.31;96658.06;5078943;28;20215;-80
2023/01/28 09:47:32;;;;;;;9.20;4.77;;;;;;;1.17;77.68;96648.28;5089913;28;20286;-81
2023/01/28 09:50:05;;;;;;;7.67;4.07;;;;;;;1.02;74.53;96648.09;5084702;28;20215;-81
2023/01/28 09:52:37;;;;;;;6.70;4.53;;;;;;;1.03;74.44;96650.56;5074837;28;20226;-81
2023/01/28 09:55:13;;;;;;;8.13;4.77;;;;;;;0.87;74.89;96652.38;5085915;28;20234;-80
2023/01/28 09:57:45;;;;;;;8.23;5.00;;;;;;;0.95;76.16;96639.91;5075801;28;20286;-81
2023/01/28 10:00:23;;;;;;;11.87;5.03;;;;;;;1.08;75.11;96650.09;5084252;28;20208;-81
2023/01/28 10:03:13;;;;;;;8.07;4.73;;;;;;;1.08;73.77;96634.13;5081133;28;20229;-81
2023/01/28 10:05:56;;;;;;;7.90;4.87;;;;;;;1.11;73.98;96639.94;5072535;28;20293;-81
2023/01/28 10:08:39;;;;;;;6.93;4.30;;;;;;;1.17;74.83;96641.13;5084323;28;20219;-83
2023/01/28 10:11:16;;;;;;;7.70;4.90;;;;;;;1.33;73.80;96633.16;5085198;28;20227;-81
2023/01/28 10:13:50;;;;;;;8.53;4.83;;;;;;;1.40;73.03;96634.16;5077297;28;20290;-81
2023/01/28 10:16:27;;;;;;;6.23;3.97;;;;;;;1.48;71.43;96636.81;5087606;28;20224;-81
2023/01/28 10:18:59;;;;;;;8.97;4.77;;;;;;;1.58;71.16;96639.31;5073552;28;20249;-80
2023/01/28 10:21:36;;;;;;;6.70;3.97;;;;;;;1.69;69.29;96632.81;5087489;28;20241;-81
2023/01/28 10:24:10;;;;;;;6.60;4.13;;;;;;;1.71;69.22;96636.13;5088280;28;20200;-81
2023/01/28 10:26:40;;;;;;;6.53;4.00;;;;;;;1.93;68.50;96638.09;5076312;28;20240;-81
2023/01/28 10:29:13;;;;;;;9.33;4.40;;;;;;;2.14;67.26;96632.19;5081646;28;20211;-81
2023/01/28 10:31:48;;;;;;;9.30;4.57;;;;;;;2.34;68.48;96628.16;5083883;28;20196;-80
2023/01/28 10:34:14;;;;;;;6.93;4.10;;;;;;;2.64;67.67;96630.00;5090548;28;20219;-81
2023/01/28 10:36:43;;;;;;;6.30;4.40;;;;;;;2.93;66.30;96625.88;5077524;28;20209;-81
2023/01/28 10:39:13;;;;;;;9.50;5.47;;;;;;;3.01;66.38;96615.13;5092098;28;20250;-81
2023/01/28 10:41:40;;;;;;;7.50;4.63;;;;;;;3.07;66.29;96613.59;5084173;28;20297;-82
2023/01/28 10:44:17;;;;;;;8.47;5.27;;;;;;;3.18;64.20;96611.34;5081093;28;20259;-81
2023/01/28 10:46:46;;;;;;;8.07;5.23;;;;;;;3.23;64.09;96606.31;5090727;28;20235;-81
2023/01/28 10:49:18;;;;;;;7.77;4.90;;;;;;;3.40;63.74;96602.50;5081209;28;20217;-81
2023/01/28 10:51:47;;;;;;;9.93;5.87;;;;;;;3.34;64.71;96599.72;5090578;28;20205;-82
2023/01/28 10:54:26;;;;;;;6.70;4.93;;;;;;;3.35;65.02;96604.06;5084989;28;20209;-81
2023/01/28 10:56:56;;;;;;;7.53;5.20;;;;;;;3.50;65.76;96607.59;5088844;28;20232;-82
2023/01/28 10:59:27;;;;;;;8.77;5.43;;;;;;;3.56;65.37;96596.22;5082720;28;20201;-82
2023/01/28 11:01:57;;;;;;;10.13;5.73;;;;;;;3.57;65.36;96591.72;5081824;28;20225;-82
2023/01/28 11:04:26;;;;;;;10.57;6.50;;;;;;;3.75;65.24;96593.00;5081211;28;20205;-82
2023/01/28 11:06:58;;;;;;;10.93;6.77;;;;;;;3.88;64.04;96594.22;5082067;28;20198;-82
2023/01/28 11:09:27;;;;;;;9.20;6.03;;;;;;;3.90;64.24;96592.22;5091783;28;20232;-82
2023/01/28 11:11:54;;;;;;;10.37;6.23;;;;;;;4.25;63.97;96588.00;5087982;28;20205;-82
2023/01/28 11:14:24;;;;;;;9.80;5.97;;;;;;;4.44;62.32;96593.59;5087284;28;20208;-82
2023/01/28 11:16:53;;;;;;;9.83;6.50;;;;;;;4.58;61.98;96591.91;5086925;28;20200;-82
2023/01/28 11:19:33;;;;;;;9.43;6.10;;;;;;;4.69;61.53;96590.59;5086084;28;20316;-82
2023/01/28 11:22:03;;;;;;;15.33;6.60;;;;;;;4.76;62.13;96588.84;5086729;28;20259;-83
2023/01/28 11:24:33;;;;;;;7.40;4.97;;;;;;;5.09;59.61;96576.66;5082286;28;20215;-82
2023/01/28 11:27:12;;;;;;;11.50;6.07;;;;;;;5.24;59.23;96579.25;5086429;28;20209;-82
2023/01/28 11:29:40;;;;;;;8.37;5.70;;;;;;;5.48;57.72;96575.34;5083307;28;20203;-83
2023/01/28 11:32:17;;;;;;;9.00;5.80;;;;;;;5.64;57.94;96583.13;5084687;28;20197;-81
2023/01/28 11:34:50;;;;;;;8.70;5.70;;;;;;;5.69;56.77;96583.38;5082664;28;20211;-82
2023/01/28 11:37:22;;;;;;;9.00;6.27;;;;;;;5.51;57.18;96583.03;5077805;28;20255;-82
2023/01/28 11:40:00;;;;;;;8.97;6.43;;;;;;;5.28;58.79;96586.72;5085507;28;20279;-85
2023/01/28 11:42:27;;;;;;;9.40;6.20;;;;;;;4.90;59.26;96583.44;5084460;28;20220;-85
2023/01/28 11:44:54;;;;;;;9.87;6.57;;;;;;;4.63;60.05;96583.31;5099018;28;20211;-82
2023/01/28 11:47:41;;;;;;;11.07;6.70;;;;;;;4.20;62.37;96580.50;5076680;28;20204;-82
2023/01/28 11:50:31;;;;;;;9.97;6.73;;;;;;;3.86;64.61;96598.91;5079536;28;20196;-82
2023/01/28 11:53:22;;;;;;;10.67;7.30;;;;;;;3.69;66.32;96590.25;5076996;28;20206;-83
2023/01/28 11:56:06;;;;;;;12.87;7.40;;;;;;;3.47;68.07;96589.28;5095985;28;20295;-83
2023/01/28 11:58:45;;;;;;;11.73;7.23;;;;;;;3.46;68.91;96587.63;5083288;28;20309;-82
2023/01/28 12:01:17;;;;;;;15.97;7.70;;;;;;;3.51;70.79;96589.72;5078508;28;20208;-82
2023/01/28 12:04:02;;;;;;;11.90;7.30;;;;;;;3.47;71.70;96580.44;5098435;28;20221;-83
2023/01/28 12:06:43;;;;;;;12.17;8.13;;;;;;;3.35;72.61;96583.53;5086781;28;20270;-83
2023/01/28 12:09:21;;;;;;;12.97;7.73;;;;;;;3.27;75.13;96575.59;5086110;28;20228;-82